createdAt,value
2022-12-03T00:01:49.526Z,13.09
2022-12-03T04:07:58.903Z,5.81
2022-12-03T04:10:25.369Z,5.86
2022-12-03T04:12:51.743Z,5.52
2022-12-03T04:15:18.115Z,5.71
2022-12-03T04:17:44.466Z,5.85
2022-12-03T04:20:10.873Z,5.67
2022-12-03T04:22:37.237Z,5.65
2022-12-03T04:25:03.615Z,5.93
2022-12-03T04:27:30.071Z,5.77
2022-12-03T04:29:56.430Z,5.67
2022-12-03T04:32:22.802Z,5.66
2022-12-03T04:34:49.189Z,5.81
2022-12-03T04:37:15.561Z,5.68
2022-12-03T04:39:41.925Z,5.89
2022-12-03T04:42:08.322Z,5.61
2022-12-03T04:44:34.699Z,5.52
2022-12-03T04:47:01.066Z,5.56
2022-12-03T04:49:27.455Z,6.00
2022-12-03T04:51:53.858Z,5.63
2022-12-03T04:54:20.236Z,5.56
2022-12-03T04:56:46.606Z,5.39
2022-12-03T04:59:16.355Z,5.17
2022-12-03T05:01:43.179Z,5.37
2022-12-03T05:04:09.578Z,5.54
2022-12-03T05:06:35.962Z,5.24
2022-12-03T05:09:02.335Z,5.18
2022-12-03T05:11:28.703Z,5.26
2022-12-03T05:13:55.086Z,5.16
2022-12-03T05:16:21.502Z,5.06
2022-12-03T05:18:47.947Z,5.15
2022-12-03T05:21:14.307Z,5.23
2022-12-03T05:23:40.667Z,4.98
2022-12-03T05:26:07.034Z,4.79
2022-12-03T05:28:33.388Z,4.79
2022-12-03T05:30:59.908Z,4.87
2022-12-03T05:33:26.318Z,5.14
2022-12-03T05:35:52.695Z,5.12
2022-12-03T05:38:19.063Z,4.93
2022-12-03T05:40:45.419Z,4.73
2022-12-03T05:43:11.819Z,4.83
2022-12-03T05:45:38.176Z,4.94
2022-12-03T05:48:04.537Z,4.97
2022-12-03T05:50:30.918Z,4.77
2022-12-03T05:52:57.298Z,4.89
2022-12-03T05:55:23.656Z,4.89
2022-12-03T05:57:50.038Z,4.68
2022-12-03T06:00:16.428Z,4.55
2022-12-03T06:02:42.894Z,5.06
2022-12-03T06:05:09.362Z,4.67
2022-12-03T06:07:35.820Z,4.60
2022-12-03T06:10:02.213Z,4.57
2022-12-03T06:12:28.582Z,4.55
2022-12-03T06:14:55.352Z,4.49
2022-12-03T06:17:21.947Z,4.62
2022-12-03T06:19:48.302Z,4.41
2022-12-03T06:22:14.666Z,4.53
2022-12-03T06:24:41.039Z,4.61
2022-12-03T06:27:07.413Z,4.51
2022-12-03T06:29:33.815Z,4.49
2022-12-03T06:32:00.247Z,4.43
2022-12-03T06:34:26.662Z,4.42
2022-12-03T06:36:53.135Z,4.26
2022-12-03T06:39:19.494Z,4.37
2022-12-03T06:41:45.886Z,4.43
2022-12-03T06:44:12.250Z,4.53
2022-12-03T06:46:38.824Z,4.34
2022-12-03T06:49:05.234Z,4.34
2022-12-03T06:51:31.598Z,4.20
2022-12-03T06:53:57.975Z,4.45
2022-12-03T06:56:25.126Z,4.58
2022-12-03T06:58:52.873Z,4.50
2022-12-03T07:01:19.263Z,4.56
2022-12-03T07:03:45.719Z,4.61
2022-12-03T07:06:12.114Z,4.97
2022-12-03T07:08:38.485Z,5.60
2022-12-03T07:11:04.842Z,5.29
2022-12-03T07:13:31.221Z,4.82
2022-12-03T07:15:57.660Z,4.89
2022-12-03T07:18:24.094Z,5.10
2022-12-03T07:20:50.450Z,4.88
2022-12-03T07:23:16.829Z,4.88
2022-12-03T07:25:43.189Z,4.49
2022-12-03T07:28:09.552Z,4.49
2022-12-03T07:30:35.924Z,4.38
2022-12-03T07:33:02.344Z,4.51
2022-12-03T07:35:28.718Z,4.41
2022-12-03T07:37:55.102Z,4.41
2022-12-03T07:40:21.470Z,4.47
2022-12-03T07:42:47.858Z,4.48
2022-12-03T07:45:14.218Z,4.24
2022-12-03T07:47:40.579Z,4.04
2022-12-03T07:50:06.942Z,4.16
2022-12-03T07:52:33.299Z,4.34
2022-12-03T07:54:59.679Z,4.28
2022-12-03T07:57:26.063Z,4.36
2022-12-03T07:59:52.422Z,4.12
2022-12-03T08:02:21.679Z,4.32
2022-12-03T08:04:48.414Z,4.30
2022-12-03T08:07:14.774Z,4.29
2022-12-03T08:09:41.150Z,4.32
2022-12-03T08:12:07.543Z,3.94
2022-12-03T08:14:33.905Z,4.23
2022-12-03T08:17:00.254Z,3.95
2022-12-03T08:19:26.638Z,3.88
2022-12-03T08:21:56.608Z,4.36
2022-12-03T08:24:27.363Z,4.27
2022-12-03T08:26:53.729Z,3.94
2022-12-03T08:29:20.121Z,4.06
2022-12-03T08:31:46.530Z,4.19
2022-12-03T08:34:12.909Z,4.30
2022-12-03T08:36:39.270Z,4.17
2022-12-03T08:39:05.655Z,4.40
2022-12-03T08:41:32.035Z,4.02
2022-12-03T08:43:58.403Z,4.29
2022-12-03T08:46:24.818Z,4.68
2022-12-03T08:48:51.232Z,4.72
2022-12-03T08:51:17.645Z,4.59
2022-12-03T08:53:44.031Z,4.48
2022-12-03T08:56:10.402Z,4.76
2022-12-03T08:58:36.784Z,4.88
2022-12-03T09:01:03.190Z,4.86
2022-12-03T09:03:29.611Z,5.44
2022-12-03T09:05:55.967Z,5.59
2022-12-03T09:08:22.342Z,5.77
2022-12-03T09:10:48.703Z,5.86
2022-12-03T09:13:15.063Z,5.88
2022-12-03T09:15:41.432Z,6.19
2022-12-03T09:18:07.853Z,6.51
2022-12-03T09:20:34.233Z,6.37
2022-12-03T09:23:00.599Z,6.49
2022-12-03T09:25:26.960Z,6.92
2022-12-03T09:27:53.330Z,7.19
2022-12-03T09:30:19.699Z,7.24
2022-12-03T09:32:46.075Z,7.80
2022-12-03T09:35:12.436Z,7.57
2022-12-03T09:37:38.903Z,7.46
2022-12-03T09:40:05.280Z,7.72
2022-12-03T09:42:31.655Z,7.98
2022-12-03T09:44:58.041Z,8.03
2022-12-03T09:47:24.414Z,8.10
2022-12-03T09:49:50.865Z,7.82
2022-12-03T09:52:17.494Z,7.92
2022-12-03T09:54:47.290Z,8.06
2022-12-03T09:57:13.999Z,8.34
2022-12-03T09:59:40.388Z,8.30
2022-12-03T10:02:06.826Z,8.33
2022-12-03T10:04:33.319Z,7.93
2022-12-03T10:06:59.767Z,8.22
2022-12-03T10:09:26.138Z,8.17
2022-12-03T10:11:52.519Z,8.46
2022-12-03T10:14:18.892Z,8.12
2022-12-03T10:16:45.352Z,8.23
2022-12-03T10:19:11.786Z,8.07
2022-12-03T10:21:38.156Z,8.40
2022-12-03T10:24:04.534Z,8.21
2022-12-03T10:26:30.935Z,8.08
2022-12-03T10:28:57.299Z,8.57
2022-12-03T10:31:23.715Z,8.22
2022-12-03T10:33:50.158Z,8.65
2022-12-03T10:36:16.544Z,8.58
2022-12-03T10:38:42.925Z,8.60
2022-12-03T10:41:09.302Z,8.52
2022-12-03T10:43:35.800Z,8.83
2022-12-03T10:46:04.514Z,8.67
2022-12-03T10:48:31.249Z,8.58
2022-12-03T10:50:57.624Z,8.59
2022-12-03T10:53:24.121Z,9.12
2022-12-03T10:55:50.475Z,9.02
2022-12-03T10:58:16.844Z,9.17
2022-12-03T11:00:43.226Z,9.38
2022-12-03T11:03:09.630Z,9.71
2022-12-03T11:05:36.010Z,9.57
2022-12-03T11:08:02.421Z,10.23
2022-12-03T11:10:28.843Z,9.76
2022-12-03T11:12:55.225Z,9.85
2022-12-03T11:15:21.595Z,9.85
2022-12-03T11:17:47.991Z,9.70
2022-12-03T11:20:19.440Z,9.94
2022-12-03T11:22:48.680Z,9.81
2022-12-03T11:25:15.064Z,9.98
2022-12-03T11:27:41.444Z,9.76
2022-12-03T11:30:07.803Z,9.65
2022-12-03T11:32:34.271Z,9.76
2022-12-03T11:35:00.663Z,10.08
2022-12-03T11:37:27.044Z,10.15
2022-12-03T11:39:53.791Z,10.29
2022-12-03T11:42:20.382Z,10.14
2022-12-03T11:44:46.760Z,9.93
2022-12-03T11:47:13.135Z,10.20
2022-12-03T11:49:39.504Z,10.57
2022-12-03T11:52:05.903Z,10.70
2022-12-03T11:54:32.289Z,11.05
2022-12-03T11:56:58.679Z,10.77
2022-12-03T11:59:25.051Z,11.24
2022-12-03T12:01:51.447Z,11.37
2022-12-03T12:04:17.864Z,11.57
2022-12-03T12:06:44.259Z,11.89
2022-12-03T12:09:10.652Z,12.37
2022-12-03T12:11:37.029Z,12.65
2022-12-03T12:14:04.765Z,12.84
2022-12-03T12:16:31.615Z,13.65
2022-12-03T12:18:58.079Z,13.70
2022-12-03T12:21:24.590Z,14.29
2022-12-03T12:23:52.246Z,14.94
2022-12-03T12:26:18.947Z,15.42
2022-12-03T12:28:45.786Z,16.47
2022-12-03T12:31:12.622Z,17.00
2022-12-03T12:33:39.133Z,17.71
2022-12-03T12:36:05.918Z,19.02
2022-12-03T12:38:33.228Z,19.38
2022-12-03T12:40:59.722Z,19.96
2022-12-03T12:43:27.408Z,20.97
2022-12-03T12:45:55.112Z,21.72
2022-12-03T12:48:21.626Z,22.21
2022-12-03T12:50:48.066Z,22.93
2022-12-03T12:53:14.594Z,24.10
2022-12-03T12:55:42.255Z,24.51
2022-12-03T12:58:09.955Z,25.29
2022-12-03T13:00:36.412Z,25.82
2022-12-03T13:03:02.815Z,26.30
2022-12-03T13:05:29.218Z,27.04
2022-12-03T13:07:55.665Z,27.09
2022-12-03T13:10:22.063Z,27.34
2022-12-03T13:12:48.440Z,28.39
2022-12-03T13:15:14.823Z,28.59
2022-12-03T13:17:41.193Z,29.07
2022-12-03T13:20:08.320Z,28.92
2022-12-03T13:22:34.758Z,29.37
2022-12-03T13:25:01.147Z,29.67
2022-12-03T13:27:27.533Z,29.34
2022-12-03T13:29:54.122Z,29.71
2022-12-03T13:32:20.771Z,30.17
2022-12-03T13:34:47.203Z,28.92
2022-12-03T13:37:13.583Z,29.25
2022-12-03T13:39:39.970Z,29.22
2022-12-03T13:42:06.363Z,29.70
2022-12-03T13:44:32.738Z,29.61
2022-12-03T13:46:59.125Z,29.56
2022-12-03T13:49:25.517Z,29.32
2022-12-03T13:51:51.896Z,29.29
2022-12-03T13:54:18.377Z,28.72
2022-12-03T13:56:44.768Z,28.94
2022-12-03T13:59:11.159Z,27.55
2022-12-03T14:01:37.711Z,28.27
2022-12-03T14:04:04.164Z,28.34
2022-12-03T14:06:30.539Z,27.66
2022-12-03T14:08:56.914Z,28.21
2022-12-03T14:11:23.336Z,27.41
2022-12-03T14:13:49.702Z,27.73
2022-12-03T14:16:16.135Z,27.80
2022-12-03T14:18:42.557Z,27.30
2022-12-03T14:21:08.948Z,27.05
2022-12-03T14:23:35.336Z,27.26
2022-12-03T14:26:01.721Z,26.92
2022-12-03T14:28:28.092Z,26.77
2022-12-03T14:30:54.482Z,26.63
2022-12-03T14:33:20.855Z,27.06
2022-12-03T14:35:47.259Z,27.10
2022-12-03T14:38:13.645Z,25.78
2022-12-03T14:40:40.021Z,25.94
2022-12-03T14:43:06.394Z,25.69
2022-12-03T14:45:32.804Z,25.37
2022-12-03T14:47:59.204Z,24.88
2022-12-03T14:50:25.608Z,25.27
2022-12-03T14:52:51.994Z,24.83
2022-12-03T14:55:18.383Z,24.73
2022-12-03T14:57:44.752Z,24.30
2022-12-03T15:00:11.153Z,24.11
2022-12-03T15:02:37.596Z,24.10
2022-12-03T15:05:04.028Z,23.09
2022-12-03T15:07:30.437Z,21.97
2022-12-03T15:09:57.147Z,22.15
2022-12-03T15:12:23.729Z,21.99
2022-12-03T15:14:50.179Z,22.05
2022-12-03T15:17:16.615Z,21.32
2022-12-03T15:19:43.015Z,21.42
2022-12-03T15:22:09.407Z,21.88
2022-12-03T15:24:35.771Z,20.34
2022-12-03T15:27:02.156Z,20.35
2022-12-03T15:29:28.546Z,20.98
2022-12-03T15:31:55.021Z,20.53
2022-12-03T15:34:23.083Z,20.46
2022-12-03T15:36:49.743Z,20.26
2022-12-03T15:39:16.147Z,20.18
2022-12-03T15:41:42.510Z,19.85
2022-12-03T15:44:08.890Z,19.61
2022-12-03T15:46:35.343Z,19.49
2022-12-03T15:49:01.838Z,19.41
2022-12-03T15:51:28.235Z,19.46
2022-12-03T15:53:54.621Z,19.57
2022-12-03T15:56:20.993Z,18.53
2022-12-03T15:58:47.459Z,18.50
2022-12-03T16:01:14.009Z,18.77
2022-12-03T16:03:40.488Z,18.29
2022-12-03T16:06:06.868Z,17.67
2022-12-03T16:08:33.350Z,17.95
2022-12-03T16:10:59.730Z,18.39
2022-12-03T16:13:26.120Z,17.93
2022-12-03T16:15:52.555Z,17.78
2022-12-03T16:18:18.960Z,17.58
2022-12-03T16:20:45.327Z,17.79
2022-12-03T16:23:11.720Z,17.37
2022-12-03T16:25:38.097Z,18.23
2022-12-03T16:28:04.468Z,17.82
2022-12-03T16:30:30.839Z,17.34
2022-12-03T16:32:57.205Z,17.16
2022-12-03T16:35:23.590Z,17.19
2022-12-03T16:37:49.984Z,17.70
2022-12-03T16:40:16.353Z,17.53
2022-12-03T16:42:42.739Z,17.94
2022-12-03T16:45:09.150Z,17.86
2022-12-03T16:47:35.519Z,17.40
2022-12-03T16:50:02.272Z,17.22
2022-12-03T16:52:28.719Z,17.42
2022-12-03T16:54:55.112Z,17.27
2022-12-03T16:57:21.483Z,17.36
2022-12-03T16:59:47.859Z,17.39
2022-12-03T17:02:14.514Z,17.62
2022-12-03T17:04:41.038Z,16.96
2022-12-03T17:07:07.422Z,17.03
2022-12-03T17:09:33.807Z,16.83
2022-12-03T17:12:00.198Z,16.92
2022-12-03T17:14:31.580Z,16.96
2022-12-03T17:16:59.589Z,16.05
2022-12-03T17:19:25.958Z,16.62
2022-12-03T17:21:52.485Z,16.85
2022-12-03T17:24:18.871Z,16.71
2022-12-03T17:26:45.263Z,16.99
2022-12-03T17:29:11.649Z,16.98
2022-12-03T17:31:41.965Z,16.38
2022-12-03T17:34:09.035Z,16.14
2022-12-03T17:36:35.402Z,16.13
2022-12-03T17:39:01.777Z,16.16
2022-12-03T17:41:28.154Z,16.12
2022-12-03T17:43:54.534Z,16.74
2022-12-03T17:46:20.959Z,16.31
2022-12-03T17:48:47.414Z,16.66
2022-12-03T17:51:13.821Z,16.70
2022-12-03T17:53:40.187Z,16.97
2022-12-03T17:56:06.587Z,18.14
2022-12-03T17:58:32.981Z,19.29
2022-12-03T18:01:02.824Z,20.56
2022-12-03T18:03:29.680Z,22.55
2022-12-03T18:05:56.119Z,24.24
2022-12-03T18:08:22.584Z,25.75
2022-12-03T18:10:49.020Z,27.64
2022-12-03T18:13:15.399Z,30.08
2022-12-03T18:15:41.869Z,32.45
2022-12-03T18:18:08.290Z,34.91
2022-12-03T18:20:34.667Z,36.23
2022-12-03T18:23:01.033Z,37.93
2022-12-03T18:25:27.406Z,39.42
2022-12-03T18:27:53.792Z,40.58
2022-12-03T18:30:20.165Z,42.63
2022-12-03T18:32:46.572Z,43.97
2022-12-03T18:35:12.965Z,44.53
2022-12-03T18:37:39.331Z,44.50
2022-12-03T18:40:12.685Z,45.20
2022-12-03T18:42:39.634Z,45.81
2022-12-03T18:45:06.029Z,47.30
2022-12-03T18:47:32.492Z,46.53
2022-12-03T18:49:59.204Z,47.01
2022-12-03T18:52:25.727Z,47.14
2022-12-03T18:54:52.107Z,47.29
2022-12-03T18:57:18.476Z,47.74
2022-12-03T18:59:44.863Z,48.31
2022-12-03T19:02:11.644Z,48.23
2022-12-03T19:04:39.418Z,48.47
2022-12-03T19:07:05.817Z,48.38
2022-12-03T19:09:32.203Z,48.69
2022-12-03T19:11:58.571Z,48.32
2022-12-03T19:14:24.954Z,47.98
2022-12-03T19:16:51.396Z,48.82
2022-12-03T19:19:18.425Z,48.85
2022-12-03T19:21:44.798Z,47.98
2022-12-03T19:24:26.524Z,47.83
2022-12-03T19:26:52.946Z,48.94
2022-12-03T19:29:19.372Z,48.32
2022-12-03T19:31:45.874Z,48.76
2022-12-03T19:34:12.311Z,48.55
2022-12-03T19:36:38.695Z,48.57
2022-12-03T19:39:05.107Z,48.82
2022-12-03T19:41:31.497Z,47.72
2022-12-03T19:43:57.873Z,48.34
2022-12-03T19:46:24.366Z,48.39
2022-12-03T19:48:50.831Z,48.61
2022-12-03T19:51:33.710Z,47.22
2022-12-03T19:54:01.329Z,48.52
2022-12-03T19:56:27.696Z,48.99
2022-12-03T19:58:54.096Z,48.42
2022-12-03T20:01:20.573Z,47.46
2022-12-03T20:03:47.008Z,48.46
2022-12-03T20:06:13.395Z,48.47
2022-12-03T20:08:39.786Z,48.87
2022-12-03T20:11:06.159Z,48.55
2022-12-03T20:13:36.448Z,47.51
2022-12-03T20:16:03.098Z,49.59
2022-12-03T20:18:29.531Z,49.02
2022-12-03T20:20:55.929Z,48.45
2022-12-03T20:23:22.309Z,46.97
2022-12-03T20:25:48.725Z,47.71
2022-12-03T20:28:15.110Z,47.57
2022-12-03T20:30:41.487Z,46.60
2022-12-03T20:33:07.876Z,46.89
2022-12-03T20:35:34.265Z,47.77
2022-12-03T20:38:00.657Z,46.45
2022-12-03T20:40:27.041Z,45.45
2022-12-03T20:42:53.410Z,45.63
2022-12-03T20:45:19.795Z,45.44
2022-12-03T20:47:46.190Z,44.61
2022-12-03T20:50:12.564Z,43.97
2022-12-03T20:52:38.929Z,44.04
2022-12-03T20:55:05.315Z,42.70
2022-12-03T20:57:31.692Z,43.50
2022-12-03T20:59:58.070Z,42.25
2022-12-03T21:02:24.524Z,41.87
2022-12-03T21:04:50.987Z,40.97
2022-12-03T21:07:17.358Z,40.39
2022-12-03T21:09:43.786Z,39.82
2022-12-03T21:12:10.151Z,39.98
2022-12-03T21:14:36.546Z,37.98
2022-12-03T21:17:10.240Z,37.75
2022-12-03T21:19:36.751Z,37.52
2022-12-03T21:22:03.150Z,36.48
2022-12-03T21:24:29.533Z,36.20
2022-12-03T21:26:55.930Z,35.80
2022-12-03T21:29:22.322Z,35.31
2022-12-03T21:31:48.698Z,33.85
2022-12-03T21:34:15.070Z,34.87
2022-12-03T21:36:41.440Z,33.40
2022-12-03T21:39:07.826Z,32.56
2022-12-03T21:41:34.230Z,32.67
2022-12-03T21:44:00.627Z,32.11
2022-12-03T21:47:11.391Z,31.84
2022-12-03T21:49:13.356Z,31.22
2022-12-03T21:51:39.757Z,30.40
2022-12-03T21:54:06.147Z,29.84
2022-12-03T21:56:32.537Z,30.20
2022-12-03T21:58:58.922Z,29.16
2022-12-03T22:01:25.389Z,28.93
2022-12-03T22:03:51.937Z,28.95
2022-12-03T22:06:18.318Z,28.59
2022-12-03T22:08:44.698Z,28.60
2022-12-03T22:11:11.086Z,27.85
2022-12-03T22:13:37.462Z,26.45
2022-12-03T22:16:03.861Z,26.90
2022-12-03T22:18:30.286Z,26.67
2022-12-03T22:20:56.667Z,26.35
2022-12-03T22:23:23.038Z,26.23
2022-12-03T22:25:49.429Z,25.62
2022-12-03T22:28:15.823Z,25.50
2022-12-03T22:30:42.285Z,26.05
2022-12-03T22:33:08.707Z,25.16
2022-12-03T22:35:35.078Z,24.37
2022-12-03T22:38:01.450Z,25.01
2022-12-03T22:40:27.827Z,24.31
2022-12-03T22:42:54.207Z,23.97
2022-12-03T22:45:20.575Z,24.06
2022-12-03T22:47:46.950Z,23.67
2022-12-03T22:50:13.339Z,23.27
2022-12-03T22:52:39.724Z,24.11
2022-12-03T22:55:06.121Z,22.97
2022-12-03T22:57:32.486Z,22.53
2022-12-03T22:59:58.881Z,22.86
2022-12-03T23:02:25.322Z,21.90
2022-12-03T23:04:51.775Z,22.79
2022-12-03T23:07:18.165Z,21.34
2022-12-03T23:09:44.554Z,21.92
2022-12-03T23:12:10.919Z,21.23
2022-12-03T23:14:37.295Z,20.79
2022-12-03T23:17:03.685Z,21.32
2022-12-03T23:19:30.193Z,20.68
2022-12-03T23:21:56.584Z,21.01
2022-12-03T23:24:22.969Z,19.79
2022-12-03T23:26:49.367Z,19.65
2022-12-03T23:29:15.734Z,19.75
2022-12-03T23:31:42.226Z,19.96
2022-12-03T23:34:08.652Z,18.78
2022-12-03T23:36:35.051Z,19.31
2022-12-03T23:39:01.442Z,19.18
2022-12-03T23:41:27.830Z,18.67
2022-12-03T23:43:54.232Z,18.74
2022-12-03T23:46:20.712Z,18.17
2022-12-03T23:48:47.134Z,17.96
2022-12-03T23:51:13.518Z,18.28
2022-12-03T23:53:39.907Z,17.75
2022-12-03T23:56:06.298Z,17.56
2022-12-03T23:58:32.701Z,17.56
